createdAt,value
2018-11-13T00:01:08.010Z,9.30
2018-11-13T00:03:35.464Z,7.87
2018-11-13T00:06:02.870Z,7.07
2018-11-13T00:08:30.278Z,7.13
2018-11-13T00:10:57.664Z,7.67
2018-11-13T00:13:25.038Z,5.40
2018-11-13T00:15:52.457Z,6.53
2018-11-13T00:18:19.889Z,6.17
2018-11-13T00:20:47.254Z,6.13
2018-11-13T00:23:14.675Z,6.07
2018-11-13T00:25:42.147Z,6.73
2018-11-13T00:28:09.543Z,6.67
2018-11-13T00:30:36.987Z,6.23
2018-11-13T00:33:05.054Z,6.70
2018-11-13T00:35:32.468Z,6.17
2018-11-13T00:37:59.834Z,6.63
2018-11-13T00:40:27.288Z,7.07
2018-11-13T00:42:54.679Z,7.43
2018-11-13T00:45:22.066Z,7.70
2018-11-13T00:47:49.493Z,7.60
2018-11-13T00:50:18.232Z,6.47
2018-11-13T00:52:46.162Z,9.97
2018-11-13T00:55:13.735Z,6.20
2018-11-13T00:57:42.201Z,5.73
2018-11-13T01:00:12.758Z,9.37
2018-11-13T01:02:40.359Z,8.77
2018-11-13T01:05:09.624Z,7.83
2018-11-13T01:07:37.006Z,7.80
2018-11-13T01:10:04.743Z,6.73
2018-11-13T01:12:32.178Z,5.33
2018-11-13T01:14:59.598Z,6.80
2018-11-13T01:17:27.097Z,6.87
2018-11-13T01:19:54.423Z,5.37
2018-11-13T01:22:21.818Z,6.87
2018-11-13T01:24:49.182Z,9.00
2018-11-13T01:27:16.558Z,8.67
2018-11-13T01:29:49.402Z,7.17
2018-11-13T01:32:16.814Z,6.17
2018-11-13T01:34:44.185Z,6.13
2018-11-13T01:37:11.574Z,6.37
2018-11-13T01:39:39.008Z,5.57
2018-11-13T01:42:06.452Z,5.90
2018-11-13T01:44:33.883Z,9.43
2018-11-13T01:47:01.338Z,6.50
2018-11-13T01:49:28.783Z,6.33
2018-11-13T01:51:56.203Z,5.90
2018-11-13T01:54:23.711Z,7.40
2018-11-13T01:56:51.089Z,6.87
2018-11-13T01:59:18.514Z,6.37
2018-11-13T02:01:45.927Z,5.70
2018-11-13T02:04:13.365Z,6.13
2018-11-13T02:06:40.757Z,6.57
2018-11-13T02:09:09.020Z,6.87
2018-11-13T02:11:36.498Z,6.93
2018-11-13T02:14:04.074Z,7.20
2018-11-13T02:16:31.503Z,5.93
2018-11-13T02:18:58.937Z,6.53
2018-11-13T02:21:26.304Z,9.13
2018-11-13T02:23:53.693Z,6.70
2018-11-13T02:26:21.113Z,7.73
2018-11-13T02:28:48.558Z,12.10
2018-11-13T02:31:15.937Z,7.73
2018-11-13T02:33:43.318Z,6.97
2018-11-13T02:36:10.707Z,7.43
2018-11-13T02:38:38.142Z,7.53
2018-11-13T02:41:05.549Z,8.17
2018-11-13T02:43:32.942Z,8.20
2018-11-13T02:46:00.417Z,7.67
2018-11-13T02:48:27.807Z,9.27
2018-11-13T02:50:55.228Z,6.37
2018-11-13T02:53:22.643Z,9.50
2018-11-13T02:55:50.035Z,10.17
2018-11-13T02:58:17.433Z,7.23
2018-11-13T03:00:44.808Z,9.73
2018-11-13T03:03:12.256Z,8.30
2018-11-13T03:05:39.707Z,8.23
2018-11-13T03:08:07.097Z,7.73
2018-11-13T03:10:34.474Z,8.77
2018-11-13T03:13:01.919Z,8.47
2018-11-13T03:15:29.296Z,11.57
2018-11-13T03:17:56.703Z,8.20
2018-11-13T03:20:24.105Z,10.23
2018-11-13T03:22:51.534Z,7.43
2018-11-13T03:25:21.104Z,7.87
2018-11-13T03:27:48.518Z,5.93
2018-11-13T03:30:21.667Z,5.70
2018-11-13T03:32:49.104Z,6.60
2018-11-13T03:35:16.514Z,6.53
2018-11-13T03:37:44.282Z,5.47
2018-11-13T03:40:12.499Z,4.73
2018-11-13T03:42:40.204Z,4.57
2018-11-13T03:45:08.962Z,4.30
2018-11-13T03:47:36.473Z,5.07
2018-11-13T03:50:04.534Z,5.40
2018-11-13T03:52:31.983Z,5.10
2018-11-13T03:54:59.365Z,8.57
2018-11-13T03:57:26.795Z,9.83
2018-11-13T03:59:54.310Z,7.57
2018-11-13T04:02:21.730Z,6.10
2018-11-13T04:04:49.095Z,5.13
2018-11-13T04:07:16.500Z,5.37
2018-11-13T04:09:43.967Z,4.40
2018-11-13T04:12:11.318Z,4.73
2018-11-13T04:14:38.742Z,5.67
2018-11-13T04:17:06.185Z,4.47
2018-11-13T04:19:33.578Z,3.47
2018-11-13T04:22:02.662Z,4.50
2018-11-13T04:24:30.122Z,5.67
2018-11-13T04:26:57.712Z,3.17
2018-11-13T04:29:25.123Z,4.87
2018-11-13T04:31:52.525Z,5.87
2018-11-13T04:34:19.969Z,5.00
2018-11-13T04:36:47.359Z,3.33
2018-11-13T04:39:14.825Z,4.03
2018-11-13T04:41:42.239Z,4.93
2018-11-13T04:44:19.062Z,6.17
2018-11-13T04:46:46.455Z,3.13
2018-11-13T04:49:13.883Z,5.87
2018-11-13T04:51:41.371Z,4.07
2018-11-13T04:54:08.699Z,4.80
2018-11-13T04:56:36.119Z,4.30
2018-11-13T04:59:03.900Z,5.07
2018-11-13T05:01:31.341Z,5.03
2018-11-13T05:03:58.736Z,6.33
2018-11-13T05:06:26.146Z,4.27
2018-11-13T05:08:53.528Z,8.93
2018-11-13T05:11:20.962Z,7.37
2018-11-13T05:13:48.363Z,7.13
2018-11-13T05:16:15.818Z,8.33
2018-11-13T05:18:43.216Z,9.87
2018-11-13T05:21:10.634Z,10.57
2018-11-13T05:23:38.050Z,10.23
2018-11-13T05:26:05.475Z,10.90
2018-11-13T05:28:32.909Z,12.50
2018-11-13T05:31:00.319Z,13.17
2018-11-13T05:33:27.772Z,14.40
2018-11-13T05:35:55.191Z,16.47
2018-11-13T05:38:22.619Z,16.93
2018-11-13T05:40:50.016Z,14.97
2018-11-13T05:43:17.436Z,11.93
2018-11-13T05:45:44.865Z,16.17
2018-11-13T05:48:12.331Z,10.13
2018-11-13T05:50:39.767Z,8.53
2018-11-13T05:53:07.276Z,7.20
2018-11-13T05:55:34.652Z,6.57
2018-11-13T05:58:02.111Z,5.87
2018-11-13T06:00:31.319Z,4.80
2018-11-13T06:02:59.296Z,6.30
2018-11-13T06:05:26.774Z,4.50
2018-11-13T06:07:54.231Z,3.40
2018-11-13T06:10:21.617Z,3.20
2018-11-13T06:12:49.028Z,3.50
2018-11-13T06:15:16.495Z,3.20
2018-11-13T06:17:43.903Z,3.50
2018-11-13T06:20:12.784Z,3.03
2018-11-13T06:22:40.224Z,3.50
2018-11-13T06:25:09.686Z,4.23
2018-11-13T06:27:37.134Z,2.50
2018-11-13T06:30:11.376Z,2.83
2018-11-13T06:32:38.810Z,1.80
2018-11-13T06:35:06.330Z,2.40
2018-11-13T06:37:33.681Z,1.50
2018-11-13T06:40:01.132Z,1.67
2018-11-13T06:42:28.530Z,1.63
2018-11-13T06:44:55.990Z,1.60
2018-11-13T06:47:23.675Z,2.57
2018-11-13T06:49:51.216Z,4.27
2018-11-13T06:52:18.600Z,11.33
2018-11-13T06:55:37.026Z,5.23
2018-11-13T06:58:05.020Z,4.33
2018-11-13T07:00:32.420Z,4.93
2018-11-13T07:02:59.817Z,4.50
2018-11-13T07:05:27.239Z,2.30
2018-11-13T07:07:54.645Z,2.53
2018-11-13T07:10:24.183Z,2.10
2018-11-13T07:12:52.241Z,1.70
2018-11-13T07:15:20.946Z,1.17
2018-11-13T07:17:50.475Z,1.20
2018-11-13T07:20:18.993Z,1.37
2018-11-13T07:22:46.466Z,1.03
2018-11-13T07:25:14.024Z,1.20
2018-11-13T07:27:42.037Z,1.20
2018-11-13T07:30:10.809Z,1.00
2018-11-13T07:32:38.802Z,0.90
2018-11-13T07:35:06.992Z,1.20
2018-11-13T07:37:34.452Z,1.13
2018-11-13T07:40:01.841Z,1.63
2018-11-13T07:42:29.246Z,1.60
2018-11-13T07:44:56.669Z,1.70
2018-11-13T07:47:24.162Z,1.90
2018-11-13T07:49:51.544Z,2.40
2018-11-13T07:52:18.957Z,2.40
2018-11-13T07:54:46.374Z,2.20
2018-11-13T07:57:13.741Z,1.90
2018-11-13T07:59:41.129Z,2.17
2018-11-13T08:03:29.694Z,1.97
2018-11-13T08:05:57.075Z,1.50
2018-11-13T08:08:24.441Z,2.20
2018-11-13T08:10:51.851Z,2.97
2018-11-13T08:13:19.368Z,2.27
2018-11-13T08:15:46.660Z,1.20
2018-11-13T08:18:14.050Z,1.60
2018-11-13T08:20:41.473Z,1.50
2018-11-13T08:23:08.919Z,2.23
2018-11-13T08:25:36.346Z,1.40
2018-11-13T08:28:03.900Z,2.00
2018-11-13T08:30:31.213Z,0.90
2018-11-13T08:32:58.597Z,3.43
2018-11-13T08:35:26.031Z,0.60
2018-11-13T08:37:53.473Z,3.13
2018-11-13T08:40:20.841Z,2.47
2018-11-13T08:42:48.259Z,1.20
2018-11-13T08:45:15.987Z,0.70
2018-11-13T08:47:43.496Z,0.90
2018-11-13T08:50:11.584Z,1.23
2018-11-13T08:52:39.288Z,2.57
2018-11-13T08:55:07.391Z,1.30
2018-11-13T08:57:35.324Z,0.90
2018-11-13T09:00:02.923Z,0.60
2018-11-13T09:02:30.355Z,1.53
2018-11-13T09:04:57.945Z,1.10
2018-11-13T09:07:25.314Z,1.27
2018-11-13T09:09:52.708Z,0.67
2018-11-13T09:12:20.178Z,0.80
2018-11-13T09:14:47.574Z,0.53
2018-11-13T09:17:15.054Z,0.50
2018-11-13T09:19:42.563Z,0.50
2018-11-13T09:22:09.958Z,0.70
2018-11-13T09:24:37.434Z,0.50
2018-11-13T09:27:05.235Z,1.17
2018-11-13T09:29:33.089Z,0.60
2018-11-13T09:32:00.472Z,0.40
2018-11-13T09:34:27.923Z,0.50
2018-11-13T09:36:55.313Z,0.47
2018-11-13T09:39:22.768Z,1.13
2018-11-13T09:41:50.140Z,0.60
2018-11-13T09:44:17.652Z,0.40
2018-11-13T09:46:45.040Z,0.43
2018-11-13T09:49:12.452Z,0.67
2018-11-13T09:51:39.943Z,0.40
2018-11-13T09:54:07.393Z,0.60
2018-11-13T09:56:34.799Z,1.00
2018-11-13T09:59:02.302Z,0.60
2018-11-13T10:01:29.924Z,1.32
2018-11-13T10:03:57.651Z,0.40
2018-11-13T10:06:24.496Z,0.80
2018-11-13T10:08:51.886Z,1.40
2018-11-13T10:11:19.270Z,1.27
2018-11-13T10:13:46.702Z,1.30
2018-11-13T10:16:14.120Z,1.43
2018-11-13T10:18:41.497Z,1.63
2018-11-13T10:21:08.870Z,0.70
2018-11-13T10:23:36.292Z,3.50
2018-11-13T10:26:03.944Z,0.80
2018-11-13T10:28:31.342Z,0.70
2018-11-13T10:30:58.812Z,1.43
2018-11-13T10:33:26.315Z,1.40
2018-11-13T10:35:53.704Z,0.70
2018-11-13T10:38:21.112Z,2.20
2018-11-13T10:40:48.725Z,1.43
2018-11-13T10:43:15.974Z,0.80
2018-11-13T10:45:43.448Z,1.17
2018-11-13T10:48:10.890Z,3.10
2018-11-13T10:50:38.245Z,1.30
2018-11-13T10:53:05.742Z,0.83
2018-11-13T10:55:33.153Z,1.63
2018-11-13T10:58:00.713Z,1.13
2018-11-13T11:00:33.729Z,0.60
2018-11-13T11:03:05.730Z,0.70
2018-11-13T11:05:33.031Z,2.60
2018-11-13T11:08:00.432Z,0.97
2018-11-13T11:10:27.896Z,1.17
2018-11-13T11:12:55.290Z,0.80
2018-11-13T11:15:22.795Z,1.10
2018-11-13T11:17:50.301Z,0.60
2018-11-13T11:20:17.754Z,0.70
2018-11-13T11:22:45.210Z,0.63
2018-11-13T11:25:13.233Z,1.10
2018-11-13T11:27:40.638Z,1.00
2018-11-13T11:30:10.486Z,0.60
2018-11-13T11:32:38.007Z,1.43
2018-11-13T11:35:06.361Z,0.87
2018-11-13T11:37:33.802Z,0.80
2018-11-13T11:40:01.252Z,0.87
2018-11-13T11:42:28.653Z,1.27
2018-11-13T11:44:56.078Z,1.73
2018-11-13T11:47:23.463Z,1.20
2018-11-13T11:49:50.885Z,0.70
2018-11-13T11:52:18.327Z,0.73
2018-11-13T11:54:45.790Z,0.70
2018-11-13T11:57:13.203Z,0.63
2018-11-13T11:59:40.625Z,0.90
2018-11-13T12:02:08.165Z,0.80
2018-11-13T12:04:35.675Z,1.27
2018-11-13T12:07:03.232Z,1.30
2018-11-13T12:09:30.710Z,1.60
2018-11-13T12:11:58.102Z,1.63
2018-11-13T12:14:25.508Z,3.13
2018-11-13T12:16:52.943Z,1.63
2018-11-13T12:19:20.385Z,1.60
2018-11-13T12:21:47.796Z,1.60
2018-11-13T12:24:15.220Z,1.97
2018-11-13T12:26:42.637Z,2.97
2018-11-13T12:29:10.068Z,1.53
2018-11-13T12:31:37.487Z,2.40
2018-11-13T12:34:05.077Z,2.43
2018-11-13T12:36:32.462Z,2.80
2018-11-13T12:38:59.937Z,1.93
2018-11-13T12:41:27.385Z,2.40
2018-11-13T12:43:54.809Z,0.97
2018-11-13T12:46:22.206Z,2.90
2018-11-13T12:48:49.770Z,1.80
2018-11-13T12:51:22.606Z,3.53
2018-11-13T12:53:50.318Z,2.20
2018-11-13T12:56:17.898Z,1.60
2018-11-13T12:58:45.215Z,2.40
2018-11-13T13:01:12.668Z,3.90
2018-11-13T13:03:40.128Z,3.23
2018-11-13T13:06:07.565Z,9.83
2018-11-13T13:08:36.004Z,3.67
2018-11-13T13:11:03.875Z,2.77
2018-11-13T13:13:31.410Z,2.27
2018-11-13T13:15:58.798Z,18.57
2018-11-13T13:18:26.236Z,2.27
2018-11-13T13:20:53.697Z,2.03
2018-11-13T13:23:21.127Z,1.97
2018-11-13T13:25:48.585Z,5.57
2018-11-13T13:28:15.976Z,4.10
2018-11-13T13:30:43.417Z,2.93
2018-11-13T13:33:10.876Z,0.63
2018-11-13T13:35:45.456Z,1.03
2018-11-13T13:38:12.951Z,1.53
2018-11-13T13:40:41.367Z,1.50
2018-11-13T13:43:09.787Z,1.77
2018-11-13T13:45:37.647Z,1.50
2018-11-13T13:48:05.171Z,1.10
2018-11-13T13:50:32.542Z,1.13
2018-11-13T13:52:59.987Z,2.47
2018-11-13T13:55:27.378Z,1.00
2018-11-13T13:57:54.828Z,1.00
2018-11-13T14:00:22.506Z,3.67
2018-11-13T14:02:49.653Z,2.40
2018-11-13T14:05:17.172Z,8.43
2018-11-13T14:07:44.584Z,10.47
2018-11-13T14:10:12.260Z,4.97
2018-11-13T14:12:39.721Z,2.90
2018-11-13T14:15:09.104Z,3.63
2018-11-13T14:17:36.576Z,3.27
2018-11-13T14:20:06.236Z,2.73
2018-11-13T14:22:33.632Z,1.87
2018-11-13T14:25:01.066Z,1.77
2018-11-13T14:27:28.511Z,1.60
2018-11-13T14:29:56.085Z,1.17
2018-11-13T14:32:23.522Z,1.53
2018-11-13T14:34:51.160Z,1.50
2018-11-13T14:37:18.573Z,1.70
2018-11-13T14:39:46.045Z,1.70
2018-11-13T14:42:13.435Z,1.97
2018-11-13T14:44:40.837Z,1.57
2018-11-13T14:47:08.305Z,2.53
2018-11-13T14:49:35.784Z,3.70
2018-11-13T14:52:03.231Z,2.30
2018-11-13T14:54:30.676Z,2.73
2018-11-13T14:56:58.130Z,7.93
2018-11-13T14:59:25.585Z,3.47
2018-11-13T15:01:53.041Z,5.27
2018-11-13T15:04:20.552Z,3.30
2018-11-13T15:06:47.992Z,2.50
2018-11-13T15:09:15.438Z,1.47
2018-11-13T15:11:42.842Z,1.03
2018-11-13T15:14:10.256Z,1.37
2018-11-13T15:16:37.677Z,2.17
2018-11-13T15:19:05.565Z,2.70
2018-11-13T15:21:32.962Z,2.10
2018-11-13T15:24:00.338Z,20.57
2018-11-13T15:26:27.829Z,9.17
2018-11-13T15:28:55.251Z,11.43
2018-11-13T15:31:22.642Z,2.73
2018-11-13T15:33:50.041Z,4.03
2018-11-13T15:36:17.476Z,1.50
2018-11-13T15:38:44.916Z,1.83
2018-11-13T15:41:12.399Z,1.43
2018-11-13T15:43:39.836Z,1.20
2018-11-13T15:46:07.342Z,1.97
2018-11-13T15:48:34.762Z,5.67
2018-11-13T15:51:02.249Z,3.60
2018-11-13T15:53:29.698Z,3.47
2018-11-13T15:55:57.108Z,3.80
2018-11-13T15:58:24.576Z,4.33
2018-11-13T16:00:52.022Z,3.87
2018-11-13T16:03:22.007Z,3.13
2018-11-13T16:05:53.638Z,3.03
2018-11-13T16:08:21.112Z,4.70
2018-11-13T16:10:48.566Z,3.90
2018-11-13T16:13:15.960Z,4.40
2018-11-13T16:15:43.784Z,3.60
2018-11-13T16:18:12.703Z,3.97
2018-11-13T16:20:40.151Z,4.87
2018-11-13T16:23:07.672Z,3.33
2018-11-13T16:25:35.158Z,5.30
2018-11-13T16:28:02.589Z,13.70
2018-11-13T16:30:32.294Z,17.23
2018-11-13T16:32:59.688Z,21.30
2018-11-13T16:35:27.961Z,18.30
2018-11-13T16:37:56.378Z,11.77
2018-11-13T16:40:25.094Z,11.97
2018-11-13T16:42:52.571Z,12.27
2018-11-13T16:45:21.256Z,12.70
2018-11-13T16:47:48.780Z,11.93
2018-11-13T16:50:25.267Z,28.23
2018-11-13T16:52:52.766Z,21.10
2018-11-13T16:55:25.769Z,17.87
2018-11-13T16:57:53.973Z,19.63
2018-11-13T17:00:22.046Z,18.53
2018-11-13T17:02:49.440Z,19.17
2018-11-13T17:05:17.852Z,20.77
2018-11-13T17:07:45.244Z,21.97
2018-11-13T17:10:14.098Z,17.80
2018-11-13T17:12:41.833Z,15.27
2018-11-13T17:15:12.567Z,15.93
2018-11-13T17:17:40.076Z,6.03
2018-11-13T17:20:08.572Z,5.93
2018-11-13T17:22:36.594Z,7.77
2018-11-13T17:25:05.144Z,6.33
2018-11-13T17:27:32.780Z,5.37
2018-11-13T17:30:00.313Z,6.93
2018-11-13T17:32:27.710Z,6.90
2018-11-13T17:34:55.144Z,6.37
2018-11-13T17:37:22.630Z,4.87
2018-11-13T17:39:50.119Z,5.83
2018-11-13T17:42:17.923Z,5.73
2018-11-13T17:44:45.393Z,5.47
2018-11-13T17:47:12.842Z,4.20
2018-11-13T17:49:40.329Z,5.60
2018-11-13T17:52:07.764Z,5.40
2018-11-13T17:54:35.725Z,5.25
2018-11-13T17:57:03.224Z,4.43
2018-11-13T17:59:30.702Z,4.30
2018-11-13T18:01:58.166Z,4.97
2018-11-13T18:04:25.569Z,5.50
2018-11-13T18:06:53.031Z,7.17
2018-11-13T18:09:20.465Z,6.30
2018-11-13T18:11:47.933Z,6.03
2018-11-13T18:14:15.449Z,4.50
2018-11-13T18:16:42.855Z,3.90
2018-11-13T18:19:10.308Z,3.90
2018-11-13T18:21:37.817Z,4.87
2018-11-13T18:24:05.446Z,5.20
2018-11-13T18:26:32.951Z,11.83
2018-11-13T18:29:00.398Z,18.30
2018-11-13T18:31:27.948Z,14.10
2018-11-13T18:33:55.375Z,13.10
2018-11-13T18:36:23.084Z,12.70
2018-11-13T18:38:50.769Z,15.93
2018-11-13T18:41:18.119Z,19.47
2018-11-13T18:43:45.684Z,15.63
2018-11-13T18:46:13.133Z,32.87
2018-11-13T18:48:40.637Z,14.97
2018-11-13T18:51:08.216Z,24.60
2018-11-13T18:53:35.665Z,18.03
2018-11-13T18:56:03.020Z,13.03
2018-11-13T18:58:30.717Z,13.50
2018-11-13T19:00:58.223Z,13.70
2018-11-13T19:03:25.978Z,15.67
2018-11-13T19:05:53.488Z,18.30
2018-11-13T19:08:20.967Z,19.43
2018-11-13T19:10:49.578Z,31.73
2018-11-13T19:13:22.850Z,38.37
2018-11-13T19:15:52.104Z,55.13
2018-11-13T19:18:20.316Z,52.27
2018-11-13T19:20:47.718Z,83.37
2018-11-13T19:23:15.218Z,90.77
2018-11-13T19:25:42.906Z,30.00
2018-11-13T19:28:10.345Z,22.40
2018-11-13T19:30:37.828Z,28.50
2018-11-13T19:33:05.364Z,20.23
2018-11-13T19:35:32.973Z,26.67
2018-11-13T19:38:00.379Z,18.60
2018-11-13T19:40:29.148Z,17.37
2018-11-13T19:42:57.545Z,16.60
2018-11-13T19:45:25.028Z,20.07
2018-11-13T19:47:52.660Z,17.90
2018-11-13T19:50:21.694Z,17.23
2018-11-13T19:52:49.220Z,20.57
2018-11-13T19:55:17.300Z,19.47
2018-11-13T19:57:45.246Z,17.90
2018-11-13T20:00:19.626Z,19.73
2018-11-13T20:02:47.946Z,24.07
2018-11-13T20:05:15.453Z,19.73
2018-11-13T20:07:42.942Z,20.03
2018-11-13T20:10:14.798Z,16.57
2018-11-13T20:12:42.579Z,39.17
2018-11-13T20:15:11.019Z,23.90
2018-11-13T20:17:38.573Z,16.10
2018-11-13T20:20:10.026Z,17.67
2018-11-13T20:22:37.524Z,14.83
2018-11-13T20:25:06.630Z,16.20
2018-11-13T20:27:34.113Z,20.47
2018-11-13T20:30:01.533Z,15.07
2018-11-13T20:32:28.980Z,19.27
2018-11-13T20:34:56.403Z,14.90
2018-11-13T20:37:23.915Z,17.90
2018-11-13T20:39:51.335Z,24.67
2018-11-13T20:42:18.759Z,16.70
2018-11-13T20:44:46.297Z,15.20
2018-11-13T20:47:13.705Z,14.63
2018-11-13T20:49:41.120Z,21.27
2018-11-13T20:52:08.603Z,19.60
2018-11-13T20:54:36.360Z,19.30
2018-11-13T20:57:03.588Z,14.87
2018-11-13T20:59:31.059Z,14.43
2018-11-13T21:01:58.526Z,13.40
2018-11-13T21:04:25.970Z,13.77
2018-11-13T21:06:53.514Z,16.10
2018-11-13T21:09:20.972Z,11.77
2018-11-13T21:11:48.408Z,10.20
2018-11-13T21:14:15.896Z,10.20
2018-11-13T21:16:43.400Z,11.10
2018-11-13T21:19:10.756Z,12.70
2018-11-13T21:21:38.240Z,16.10
2018-11-13T21:24:05.761Z,16.17
2018-11-13T21:26:33.139Z,12.10
2018-11-13T21:29:00.821Z,11.53
2018-11-13T21:31:29.060Z,17.77
2018-11-13T21:33:56.814Z,22.50
2018-11-13T21:36:24.289Z,21.47
2018-11-13T21:38:52.048Z,19.90
2018-11-13T21:41:20.288Z,14.03
2018-11-13T21:43:48.007Z,15.97
2018-11-13T21:46:15.635Z,15.57
2018-11-13T21:48:43.718Z,22.50
2018-11-13T21:51:11.846Z,11.63
2018-11-13T21:53:39.544Z,27.43
2018-11-13T21:56:07.931Z,19.00
2018-11-13T21:58:35.350Z,27.40
2018-11-13T22:01:02.759Z,41.53
2018-11-13T22:03:30.204Z,30.87
2018-11-13T22:05:57.885Z,17.23
2018-11-13T22:08:25.178Z,19.93
2018-11-13T22:10:52.610Z,27.37
2018-11-13T22:13:20.055Z,41.00
2018-11-13T22:15:47.455Z,26.17
2018-11-13T22:18:14.900Z,23.87
2018-11-13T22:20:43.614Z,31.33
2018-11-13T22:23:09.828Z,16.37
2018-11-13T22:25:37.285Z,11.63
2018-11-13T22:28:05.010Z,25.97
2018-11-13T22:30:33.274Z,41.43
2018-11-13T22:33:00.898Z,18.63
2018-11-13T22:35:28.681Z,18.27
2018-11-13T22:37:56.755Z,17.30
2018-11-13T22:40:25.852Z,17.47
2018-11-13T22:42:53.795Z,16.27
2018-11-13T22:45:24.925Z,13.73
2018-11-13T22:47:53.212Z,26.80
2018-11-13T22:50:21.887Z,37.50
2018-11-13T22:52:50.097Z,15.70
2018-11-13T22:55:18.284Z,68.47
2018-11-13T22:57:47.126Z,12.77
2018-11-13T23:00:18.471Z,13.83
2018-11-13T23:02:46.825Z,10.40
2018-11-13T23:05:14.271Z,15.00
2018-11-13T23:07:41.741Z,31.93
2018-11-13T23:10:10.679Z,19.50
2018-11-13T23:12:38.575Z,16.37
2018-11-13T23:15:08.108Z,12.10
2018-11-13T23:17:35.481Z,17.07
2018-11-13T23:20:03.231Z,18.97
2018-11-13T23:22:30.737Z,13.87
2018-11-13T23:24:58.280Z,12.00
2018-11-13T23:27:25.707Z,12.80
2018-11-13T23:29:53.107Z,31.43
2018-11-13T23:32:20.506Z,15.07
2018-11-13T23:34:47.978Z,16.40
2018-11-13T23:37:15.366Z,20.47
2018-11-13T23:39:42.788Z,16.87
2018-11-13T23:42:10.219Z,14.13
2018-11-13T23:44:37.601Z,17.10
2018-11-13T23:47:05.305Z,22.27
2018-11-13T23:49:32.759Z,25.67
2018-11-13T23:52:00.146Z,13.77
2018-11-13T23:54:27.589Z,13.63
2018-11-13T23:56:54.986Z,12.80
2018-11-13T23:59:22.477Z,13.03
